sensor_id;sensor_type;location;lat;lon;timestamp;temperature;humidity
76293;DHT22;67256;51.154;4.164;2023-10-31T00:01:47;13.10;99.90
76293;DHT22;67256;51.154;4.164;2023-10-31T00:04:14;13.10;99.90
76293;DHT22;67256;51.154;4.164;2023-10-31T00:06:41;13.20;99.90
76293;DHT22;67256;51.154;4.164;2023-10-31T00:09:07;13.10;99.90
76293;DHT22;67256;51.154;4.164;2023-10-31T00:11:34;13.10;99.90
76293;DHT22;67256;51.154;4.164;2023-10-31T00:13:59;13.10;99.90
76293;DHT22;67256;51.154;4.164;2023-10-31T00:16:25;13.10;99.90
76293;DHT22;67256;51.154;4.164;2023-10-31T00:18:51;13.10;99.90
76293;DHT22;67256;51.154;4.164;2023-10-31T00:21:16;13.10;99.90
76293;DHT22;67256;51.154;4.164;2023-10-31T00:23:44;13.10;99.90
76293;DHT22;67256;51.154;4.164;2023-10-31T00:26:10;13.10;99.90
76293;DHT22;67256;51.154;4.164;2023-10-31T00:28:35;13.10;99.90
76293;DHT22;67256;51.154;4.164;2023-10-31T00:31:01;13.10;99.90
76293;DHT22;67256;51.154;4.164;2023-10-31T00:33:29;13.10;99.90
76293;DHT22;67256;51.154;4.164;2023-10-31T00:35:55;13.10;99.90
76293;DHT22;67256;51.154;4.164;2023-10-31T00:38:21;13.20;99.90
76293;DHT22;67256;51.154;4.164;2023-10-31T00:40:46;13.10;99.90
76293;DHT22;67256;51.154;4.164;2023-10-31T00:43:12;13.10;99.90
76293;DHT22;67256;51.154;4.164;2023-10-31T00:45:39;13.10;99.90
76293;DHT22;67256;51.154;4.164;2023-10-31T00:48:05;13.10;99.90
76293;DHT22;67256;51.154;4.164;2023-10-31T00:50:30;13.10;99.90
76293;DHT22;67256;51.154;4.164;2023-10-31T00:52:56;13.00;99.90
76293;DHT22;67256;51.154;4.164;2023-10-31T00:55:22;13.00;99.90
76293;DHT22;67256;51.154;4.164;2023-10-31T00:57:47;13.00;99.90
76293;DHT22;67256;51.154;4.164;2023-10-31T01:00:13;13.00;99.90
76293;DHT22;67256;51.154;4.164;2023-10-31T01:02:39;12.90;99.90
76293;DHT22;67256;51.154;4.164;2023-10-31T01:05:05;12.90;99.90
76293;DHT22;67256;51.154;4.164;2023-10-31T01:07:31;12.90;99.90
76293;DHT22;67256;51.154;4.164;2023-10-31T01:09:57;12.90;99.90
76293;DHT22;67256;51.154;4.164;2023-10-31T01:12:22;13.00;99.90
76293;DHT22;67256;51.154;4.164;2023-10-31T01:14:48;13.00;99.90
76293;DHT22;67256;51.154;4.164;2023-10-31T01:17:14;12.90;99.90
76293;DHT22;67256;51.154;4.164;2023-10-31T01:19:40;12.90;99.90
76293;DHT22;67256;51.154;4.164;2023-10-31T01:22:05;12.80;99.90
76293;DHT22;67256;51.154;4.164;2023-10-31T01:24:32;12.70;99.90
76293;DHT22;67256;51.154;4.164;2023-10-31T01:26:59;12.60;99.90
76293;DHT22;67256;51.154;4.164;2023-10-31T01:29:25;12.50;99.90
76293;DHT22;67256;51.154;4.164;2023-10-31T01:31:50;12.50;99.90
76293;DHT22;67256;51.154;4.164;2023-10-31T01:34:16;12.40;99.90
76293;DHT22;67256;51.154;4.164;2023-10-31T01:36:42;12.50;99.90
76293;DHT22;67256;51.154;4.164;2023-10-31T01:39:07;12.50;99.90
76293;DHT22;67256;51.154;4.164;2023-10-31T01:41:33;12.50;99.90
76293;DHT22;67256;51.154;4.164;2023-10-31T01:43:59;12.50;99.90
76293;DHT22;67256;51.154;4.164;2023-10-31T01:46:25;12.60;99.90
76293;DHT22;67256;51.154;4.164;2023-10-31T01:48:50;12.70;99.90
76293;DHT22;67256;51.154;4.164;2023-10-31T01:51:16;12.80;99.90
76293;DHT22;67256;51.154;4.164;2023-10-31T01:53:42;12.80;99.90
76293;DHT22;67256;51.154;4.164;2023-10-31T01:56:08;12.80;99.90
76293;DHT22;67256;51.154;4.164;2023-10-31T01:58:35;12.90;99.90
76293;DHT22;67256;51.154;4.164;2023-10-31T02:01:01;12.90;99.90
76293;DHT22;67256;51.154;4.164;2023-10-31T02:03:28;12.80;99.90
76293;DHT22;67256;51.154;4.164;2023-10-31T02:05:57;12.90;99.90
76293;DHT22;67256;51.154;4.164;2023-10-31T02:08:27;12.50;99.90
76293;DHT22;67256;51.154;4.164;2023-10-31T02:10:53;12.50;99.90
76293;DHT22;67256;51.154;4.164;2023-10-31T02:13:18;12.60;99.90
76293;DHT22;67256;51.154;4.164;2023-10-31T02:15:45;12.50;99.90
76293;DHT22;67256;51.154;4.164;2023-10-31T02:18:11;12.60;99.90
76293;DHT22;67256;51.154;4.164;2023-10-31T02:20:37;12.50;99.90
76293;DHT22;67256;51.154;4.164;2023-10-31T02:23:03;12.60;99.90
76293;DHT22;67256;51.154;4.164;2023-10-31T02:25:30;12.60;99.90
76293;DHT22;67256;51.154;4.164;2023-10-31T02:27:56;12.60;99.90
76293;DHT22;67256;51.154;4.164;2023-10-31T02:30:22;12.60;99.90
76293;DHT22;67256;51.154;4.164;2023-10-31T02:32:47;12.60;99.90
76293;DHT22;67256;51.154;4.164;2023-10-31T02:35:17;12.50;99.90
76293;DHT22;67256;51.154;4.164;2023-10-31T02:37:46;12.50;99.90
76293;DHT22;67256;51.154;4.164;2023-10-31T02:40:13;12.70;99.90
76293;DHT22;67256;51.154;4.164;2023-10-31T02:42:39;12.70;99.90
76293;DHT22;67256;51.154;4.164;2023-10-31T02:45:05;12.70;99.90
76293;DHT22;67256;51.154;4.164;2023-10-31T02:47:31;12.70;99.90
76293;DHT22;67256;51.154;4.164;2023-10-31T02:49:57;12.60;99.90
76293;DHT22;67256;51.154;4.164;2023-10-31T02:52:23;12.60;99.90
76293;DHT22;67256;51.154;4.164;2023-10-31T02:54:49;12.60;99.90
76293;DHT22;67256;51.154;4.164;2023-10-31T02:57:16;12.60;99.90
76293;DHT22;67256;51.154;4.164;2023-10-31T02:59:41;12.60;99.90
76293;DHT22;67256;51.154;4.164;2023-10-31T03:02:07;12.70;99.90
76293;DHT22;67256;51.154;4.164;2023-10-31T03:04:33;12.60;99.90
76293;DHT22;67256;51.154;4.164;2023-10-31T03:06:59;12.70;99.90
76293;DHT22;67256;51.154;4.164;2023-10-31T03:09:24;12.60;99.90
76293;DHT22;67256;51.154;4.164;2023-10-31T03:11:50;12.70;99.90
76293;DHT22;67256;51.154;4.164;2023-10-31T03:14:16;12.70;99.90
76293;DHT22;67256;51.154;4.164;2023-10-31T03:16:42;12.60;99.90
76293;DHT22;67256;51.154;4.164;2023-10-31T03:19:08;12.60;99.90
76293;DHT22;67256;51.154;4.164;2023-10-31T03:21:33;12.60;99.90
76293;DHT22;67256;51.154;4.164;2023-10-31T03:23:59;12.50;99.90
76293;DHT22;67256;51.154;4.164;2023-10-31T03:26:26;12.50;99.90
76293;DHT22;67256;51.154;4.164;2023-10-31T03:28:52;12.50;99.90
76293;DHT22;67256;51.154;4.164;2023-10-31T03:31:23;12.40;99.90
76293;DHT22;67256;51.154;4.164;2023-10-31T03:33:48;12.30;99.80
76293;DHT22;67256;51.154;4.164;2023-10-31T03:36:14;12.40;99.90
76293;DHT22;67256;51.154;4.164;2023-10-31T03:38:40;12.40;99.90
76293;DHT22;67256;51.154;4.164;2023-10-31T03:41:06;12.50;99.90
76293;DHT22;67256;51.154;4.164;2023-10-31T03:43:32;12.50;99.70
76293;DHT22;67256;51.154;4.164;2023-10-31T03:45:58;12.40;99.80
76293;DHT22;67256;51.154;4.164;2023-10-31T03:48:24;12.40;99.90
76293;DHT22;67256;51.154;4.164;2023-10-31T03:50:50;12.40;99.90
76293;DHT22;67256;51.154;4.164;2023-10-31T03:53:16;12.50;99.90
76293;DHT22;67256;51.154;4.164;2023-10-31T03:55:42;12.60;99.70
76293;DHT22;67256;51.154;4.164;2023-10-31T03:58:08;12.60;99.40
76293;DHT22;67256;51.154;4.164;2023-10-31T04:00:34;12.50;99.60
76293;DHT22;67256;51.154;4.164;2023-10-31T04:02:59;12.50;99.50
76293;DHT22;67256;51.154;4.164;2023-10-31T04:05:25;12.40;99.50
76293;DHT22;67256;51.154;4.164;2023-10-31T04:07:51;12.30;99.90
76293;DHT22;67256;51.154;4.164;2023-10-31T04:10:18;12.20;99.70
76293;DHT22;67256;51.154;4.164;2023-10-31T04:12:44;12.30;99.90
76293;DHT22;67256;51.154;4.164;2023-10-31T04:15:10;12.30;99.90
76293;DHT22;67256;51.154;4.164;2023-10-31T04:17:35;12.30;99.50
76293;DHT22;67256;51.154;4.164;2023-10-31T04:20:02;12.30;99.70
76293;DHT22;67256;51.154;4.164;2023-10-31T04:22:28;12.30;99.80
76293;DHT22;67256;51.154;4.164;2023-10-31T04:24:54;12.40;99.80
76293;DHT22;67256;51.154;4.164;2023-10-31T04:27:20;12.40;99.60
76293;DHT22;67256;51.154;4.164;2023-10-31T04:29:46;12.40;99.20
76293;DHT22;67256;51.154;4.164;2023-10-31T04:32:11;12.40;99.50
76293;DHT22;67256;51.154;4.164;2023-10-31T04:34:37;12.40;99.50
76293;DHT22;67256;51.154;4.164;2023-10-31T04:37:03;12.50;99.50
76293;DHT22;67256;51.154;4.164;2023-10-31T04:39:29;12.50;99.20
76293;DHT22;67256;51.154;4.164;2023-10-31T04:41:55;12.50;99.20
76293;DHT22;67256;51.154;4.164;2023-10-31T04:44:21;12.50;99.30
76293;DHT22;67256;51.154;4.164;2023-10-31T04:46:47;12.50;99.30
76293;DHT22;67256;51.154;4.164;2023-10-31T04:49:13;12.60;99.40
76293;DHT22;67256;51.154;4.164;2023-10-31T04:51:39;12.60;99.00
76293;DHT22;67256;51.154;4.164;2023-10-31T04:54:05;12.50;99.20
76293;DHT22;67256;51.154;4.164;2023-10-31T04:56:31;12.40;99.10
76293;DHT22;67256;51.154;4.164;2023-10-31T04:58:56;12.40;99.00
76293;DHT22;67256;51.154;4.164;2023-10-31T05:01:22;12.30;99.60
76293;DHT22;67256;51.154;4.164;2023-10-31T05:03:49;12.30;99.60
76293;DHT22;67256;51.154;4.164;2023-10-31T05:06:19;12.50;99.40
76293;DHT22;67256;51.154;4.164;2023-10-31T05:08:46;12.50;99.30
76293;DHT22;67256;51.154;4.164;2023-10-31T05:11:12;12.60;99.20
76293;DHT22;67256;51.154;4.164;2023-10-31T05:13:38;12.60;99.20
76293;DHT22;67256;51.154;4.164;2023-10-31T05:16:05;12.70;98.90
76293;DHT22;67256;51.154;4.164;2023-10-31T05:18:31;12.60;98.90
76293;DHT22;67256;51.154;4.164;2023-10-31T05:20:57;12.50;98.80
76293;DHT22;67256;51.154;4.164;2023-10-31T05:23:22;12.60;99.10
76293;DHT22;67256;51.154;4.164;2023-10-31T05:25:49;12.60;98.90
76293;DHT22;67256;51.154;4.164;2023-10-31T05:28:14;12.60;98.80
76293;DHT22;67256;51.154;4.164;2023-10-31T05:30:40;12.60;98.60
76293;DHT22;67256;51.154;4.164;2023-10-31T05:33:06;12.60;98.50
76293;DHT22;67256;51.154;4.164;2023-10-31T05:35:33;12.60;98.30
76293;DHT22;67256;51.154;4.164;2023-10-31T05:37:59;12.50;98.40
76293;DHT22;67256;51.154;4.164;2023-10-31T05:40:25;12.40;98.60
76293;DHT22;67256;51.154;4.164;2023-10-31T05:42:52;12.40;98.90
76293;DHT22;67256;51.154;4.164;2023-10-31T05:45:18;12.40;98.80
76293;DHT22;67256;51.154;4.164;2023-10-31T05:47:44;12.30;98.60
76293;DHT22;67256;51.154;4.164;2023-10-31T05:50:10;12.20;98.80
76293;DHT22;67256;51.154;4.164;2023-10-31T05:52:36;12.20;98.70
76293;DHT22;67256;51.154;4.164;2023-10-31T05:55:02;12.30;98.80
76293;DHT22;67256;51.154;4.164;2023-10-31T05:57:28;12.20;98.70
76293;DHT22;67256;51.154;4.164;2023-10-31T05:59:53;12.20;98.90
76293;DHT22;67256;51.154;4.164;2023-10-31T06:02:19;12.20;98.80
76293;DHT22;67256;51.154;4.164;2023-10-31T06:04:45;12.20;98.90
76293;DHT22;67256;51.154;4.164;2023-10-31T06:07:11;12.20;98.90
76293;DHT22;67256;51.154;4.164;2023-10-31T06:09:37;12.10;98.80
76293;DHT22;67256;51.154;4.164;2023-10-31T06:12:03;12.10;98.90
76293;DHT22;67256;51.154;4.164;2023-10-31T06:14:29;12.10;99.10
76293;DHT22;67256;51.154;4.164;2023-10-31T06:16:55;12.10;99.10
76293;DHT22;67256;51.154;4.164;2023-10-31T06:19:22;12.10;98.90
76293;DHT22;67256;51.154;4.164;2023-10-31T06:21:48;12.10;99.10
76293;DHT22;67256;51.154;4.164;2023-10-31T06:24:14;12.20;99.00
76293;DHT22;67256;51.154;4.164;2023-10-31T06:26:39;12.20;98.90
76293;DHT22;67256;51.154;4.164;2023-10-31T06:29:05;12.10;98.80
76293;DHT22;67256;51.154;4.164;2023-10-31T06:31:31;12.20;99.40
76293;DHT22;67256;51.154;4.164;2023-10-31T06:33:57;12.10;99.00
76293;DHT22;67256;51.154;4.164;2023-10-31T06:36:23;12.00;99.20
76293;DHT22;67256;51.154;4.164;2023-10-31T06:38:48;12.20;99.40
76293;DHT22;67256;51.154;4.164;2023-10-31T06:41:15;12.20;99.30
76293;DHT22;67256;51.154;4.164;2023-10-31T06:43:41;12.20;99.10
76293;DHT22;67256;51.154;4.164;2023-10-31T06:46:07;12.20;99.10
76293;DHT22;67256;51.154;4.164;2023-10-31T06:48:33;12.20;99.20
76293;DHT22;67256;51.154;4.164;2023-10-31T06:50:59;12.10;99.30
76293;DHT22;67256;51.154;4.164;2023-10-31T06:53:25;12.10;99.40
76293;DHT22;67256;51.154;4.164;2023-10-31T06:55:51;12.20;99.30
76293;DHT22;67256;51.154;4.164;2023-10-31T06:58:17;12.30;99.00
76293;DHT22;67256;51.154;4.164;2023-10-31T07:00:42;12.40;99.00
76293;DHT22;67256;51.154;4.164;2023-10-31T07:03:08;12.50;99.00
76293;DHT22;67256;51.154;4.164;2023-10-31T07:05:37;12.40;98.60
76293;DHT22;67256;51.154;4.164;2023-10-31T07:08:03;12.40;99.00
76293;DHT22;67256;51.154;4.164;2023-10-31T07:10:30;12.40;99.00
76293;DHT22;67256;51.154;4.164;2023-10-31T07:12:56;12.40;99.20
76293;DHT22;67256;51.154;4.164;2023-10-31T07:15:22;12.30;99.00
76293;DHT22;67256;51.154;4.164;2023-10-31T07:17:48;12.30;99.00
76293;DHT22;67256;51.154;4.164;2023-10-31T07:20:14;12.40;99.00
76293;DHT22;67256;51.154;4.164;2023-10-31T07:22:40;12.40;99.20
76293;DHT22;67256;51.154;4.164;2023-10-31T07:25:06;12.30;99.40
76293;DHT22;67256;51.154;4.164;2023-10-31T07:27:33;12.40;99.50
76293;DHT22;67256;51.154;4.164;2023-10-31T07:29:58;12.50;99.20
76293;DHT22;67256;51.154;4.164;2023-10-31T07:32:24;12.60;98.90
76293;DHT22;67256;51.154;4.164;2023-10-31T07:34:51;12.50;98.90
76293;DHT22;67256;51.154;4.164;2023-10-31T07:37:17;12.50;99.20
76293;DHT22;67256;51.154;4.164;2023-10-31T07:39:43;12.60;99.10
76293;DHT22;67256;51.154;4.164;2023-10-31T07:42:09;12.70;98.90
76293;DHT22;67256;51.154;4.164;2023-10-31T07:44:35;12.80;98.80
76293;DHT22;67256;51.154;4.164;2023-10-31T07:47:01;12.80;98.50
76293;DHT22;67256;51.154;4.164;2023-10-31T07:49:27;12.70;98.80
76293;DHT22;67256;51.154;4.164;2023-10-31T07:51:52;12.70;98.80
76293;DHT22;67256;51.154;4.164;2023-10-31T07:54:18;12.80;98.80
76293;DHT22;67256;51.154;4.164;2023-10-31T07:56:45;12.80;98.90
76293;DHT22;67256;51.154;4.164;2023-10-31T07:59:10;12.80;98.80
76293;DHT22;67256;51.154;4.164;2023-10-31T08:01:36;12.80;98.60
76293;DHT22;67256;51.154;4.164;2023-10-31T08:04:03;12.90;98.60
76293;DHT22;67256;51.154;4.164;2023-10-31T08:06:30;12.80;98.50
76293;DHT22;67256;51.154;4.164;2023-10-31T08:08:56;12.80;98.50
76293;DHT22;67256;51.154;4.164;2023-10-31T08:11:21;12.80;98.50
76293;DHT22;67256;51.154;4.164;2023-10-31T08:13:47;12.70;98.80
76293;DHT22;67256;51.154;4.164;2023-10-31T08:16:17;12.60;98.80
76293;DHT22;67256;51.154;4.164;2023-10-31T08:18:46;12.70;98.80
76293;DHT22;67256;51.154;4.164;2023-10-31T08:21:12;12.70;98.70
76293;DHT22;67256;51.154;4.164;2023-10-31T08:23:38;12.70;98.90
76293;DHT22;67256;51.154;4.164;2023-10-31T08:26:04;12.60;99.00
76293;DHT22;67256;51.154;4.164;2023-10-31T08:28:30;12.60;99.20
76293;DHT22;67256;51.154;4.164;2023-10-31T08:30:59;12.70;98.90
76293;DHT22;67256;51.154;4.164;2023-10-31T08:33:25;13.00;98.70
76293;DHT22;67256;51.154;4.164;2023-10-31T08:35:51;12.90;98.40
76293;DHT22;67256;51.154;4.164;2023-10-31T08:38:17;13.00;98.60
76293;DHT22;67256;51.154;4.164;2023-10-31T08:40:43;13.10;98.40
76293;DHT22;67256;51.154;4.164;2023-10-31T08:43:09;13.10;98.20
76293;DHT22;67256;51.154;4.164;2023-10-31T08:45:36;13.10;98.40
76293;DHT22;67256;51.154;4.164;2023-10-31T08:48:02;13.10;98.40
76293;DHT22;67256;51.154;4.164;2023-10-31T08:50:27;13.00;98.20
76293;DHT22;67256;51.154;4.164;2023-10-31T08:52:53;13.00;98.50
76293;DHT22;67256;51.154;4.164;2023-10-31T08:55:19;13.00;98.50
76293;DHT22;67256;51.154;4.164;2023-10-31T08:57:45;13.20;98.30
76293;DHT22;67256;51.154;4.164;2023-10-31T09:00:11;13.50;98.10
76293;DHT22;67256;51.154;4.164;2023-10-31T09:02:38;13.60;97.80
76293;DHT22;67256;51.154;4.164;2023-10-31T09:05:04;13.60;97.80
76293;DHT22;67256;51.154;4.164;2023-10-31T09:07:31;13.70;97.60
76293;DHT22;67256;51.154;4.164;2023-10-31T09:09:57;13.60;97.70
76293;DHT22;67256;51.154;4.164;2023-10-31T09:12:23;13.50;97.90
76293;DHT22;67256;51.154;4.164;2023-10-31T09:14:49;13.50;97.80
76293;DHT22;67256;51.154;4.164;2023-10-31T09:17:15;13.50;97.80
76293;DHT22;67256;51.154;4.164;2023-10-31T09:19:40;13.60;97.40
76293;DHT22;67256;51.154;4.164;2023-10-31T09:22:06;13.50;97.30
76293;DHT22;67256;51.154;4.164;2023-10-31T09:24:33;13.50;97.30
76293;DHT22;67256;51.154;4.164;2023-10-31T09:27:00;13.50;97.50
76293;DHT22;67256;51.154;4.164;2023-10-31T09:29:26;13.30;97.40
76293;DHT22;67256;51.154;4.164;2023-10-31T09:31:51;13.30;97.60
76293;DHT22;67256;51.154;4.164;2023-10-31T09:34:17;13.40;97.40
76293;DHT22;67256;51.154;4.164;2023-10-31T09:36:43;13.40;97.20
76293;DHT22;67256;51.154;4.164;2023-10-31T09:39:09;13.50;97.60
76293;DHT22;67256;51.154;4.164;2023-10-31T09:41:35;13.60;97.30
76293;DHT22;67256;51.154;4.164;2023-10-31T09:44:01;13.60;97.00
76293;DHT22;67256;51.154;4.164;2023-10-31T09:46:29;13.70;97.10
76293;DHT22;67256;51.154;4.164;2023-10-31T09:48:56;13.90;97.20
76293;DHT22;67256;51.154;4.164;2023-10-31T09:51:22;13.90;97.20
76293;DHT22;67256;51.154;4.164;2023-10-31T09:53:48;14.00;97.00
76293;DHT22;67256;51.154;4.164;2023-10-31T09:56:15;14.00;96.80
76293;DHT22;67256;51.154;4.164;2023-10-31T09:58:42;13.90;97.00
76293;DHT22;67256;51.154;4.164;2023-10-31T10:01:08;13.80;97.00
76293;DHT22;67256;51.154;4.164;2023-10-31T10:03:34;13.90;97.10
76293;DHT22;67256;51.154;4.164;2023-10-31T10:06:02;14.00;96.70
76293;DHT22;67256;51.154;4.164;2023-10-31T10:08:28;14.10;96.80
76293;DHT22;67256;51.154;4.164;2023-10-31T10:10:54;14.00;96.80
76293;DHT22;67256;51.154;4.164;2023-10-31T10:13:23;14.10;97.00
76293;DHT22;67256;51.154;4.164;2023-10-31T10:15:51;14.00;97.00
76293;DHT22;67256;51.154;4.164;2023-10-31T10:18:35;14.10;96.90
76293;DHT22;67256;51.154;4.164;2023-10-31T10:21:04;14.30;96.70
76293;DHT22;67256;51.154;4.164;2023-10-31T10:23:32;14.40;96.20
76293;DHT22;67256;51.154;4.164;2023-10-31T10:25:59;14.30;96.30
76293;DHT22;67256;51.154;4.164;2023-10-31T10:28:26;14.40;96.30
76293;DHT22;67256;51.154;4.164;2023-10-31T10:30:54;14.30;96.00
76293;DHT22;67256;51.154;4.164;2023-10-31T10:33:21;14.30;96.40
76293;DHT22;67256;51.154;4.164;2023-10-31T10:35:47;14.20;96.10
76293;DHT22;67256;51.154;4.164;2023-10-31T10:38:18;14.10;96.70
76293;DHT22;67256;51.154;4.164;2023-10-31T10:40:46;14.00;96.50
76293;DHT22;67256;51.154;4.164;2023-10-31T10:43:25;13.90;96.60
76293;DHT22;67256;51.154;4.164;2023-10-31T10:45:56;13.80;96.60
76293;DHT22;67256;51.154;4.164;2023-10-31T10:48:26;13.80;96.80
76293;DHT22;67256;51.154;4.164;2023-10-31T10:51:11;13.80;96.70
76293;DHT22;67256;51.154;4.164;2023-10-31T10:53:48;13.90;96.50
76293;DHT22;67256;51.154;4.164;2023-10-31T10:56:28;13.80;96.40
76293;DHT22;67256;51.154;4.164;2023-10-31T10:59:03;13.90;96.60
76293;DHT22;67256;51.154;4.164;2023-10-31T11:01:31;13.90;96.40
76293;DHT22;67256;51.154;4.164;2023-10-31T11:03:57;13.90;96.20
76293;DHT22;67256;51.154;4.164;2023-10-31T11:06:24;13.80;96.30
76293;DHT22;67256;51.154;4.164;2023-10-31T11:08:52;13.80;96.50
76293;DHT22;67256;51.154;4.164;2023-10-31T11:11:20;13.80;96.30
76293;DHT22;67256;51.154;4.164;2023-10-31T11:13:46;13.90;96.50
76293;DHT22;67256;51.154;4.164;2023-10-31T11:16:26;13.80;96.40
76293;DHT22;67256;51.154;4.164;2023-10-31T11:18:54;13.90;96.40
76293;DHT22;67256;51.154;4.164;2023-10-31T11:21:22;14.00;96.30
76293;DHT22;67256;51.154;4.164;2023-10-31T11:23:59;14.10;96.00
76293;DHT22;67256;51.154;4.164;2023-10-31T11:26:30;14.00;95.90
76293;DHT22;67256;51.154;4.164;2023-10-31T11:29:06;13.70;96.40
76293;DHT22;67256;51.154;4.164;2023-10-31T11:31:37;13.70;96.70
76293;DHT22;67256;51.154;4.164;2023-10-31T11:34:03;13.90;96.40
76293;DHT22;67256;51.154;4.164;2023-10-31T11:36:32;14.00;96.30
76293;DHT22;67256;51.154;4.164;2023-10-31T11:39:21;14.00;96.10
76293;DHT22;67256;51.154;4.164;2023-10-31T11:41:54;14.10;96.00
76293;DHT22;67256;51.154;4.164;2023-10-31T11:44:23;14.10;96.00
76293;DHT22;67256;51.154;4.164;2023-10-31T11:46:51;14.10;95.60
76293;DHT22;67256;51.154;4.164;2023-10-31T11:49:28;14.00;96.10
76293;DHT22;67256;51.154;4.164;2023-10-31T11:52:15;13.80;96.30
76293;DHT22;67256;51.154;4.164;2023-10-31T11:54:41;13.50;96.70
76293;DHT22;67256;51.154;4.164;2023-10-31T11:57:06;13.50;96.70
76293;DHT22;67256;51.154;4.164;2023-10-31T11:59:39;13.50;97.20
76293;DHT22;67256;51.154;4.164;2023-10-31T12:02:15;13.40;97.00
76293;DHT22;67256;51.154;4.164;2023-10-31T12:04:41;13.40;97.20
76293;DHT22;67256;51.154;4.164;2023-10-31T12:07:08;13.40;97.10
76293;DHT22;67256;51.154;4.164;2023-10-31T12:09:48;13.50;97.30
76293;DHT22;67256;51.154;4.164;2023-10-31T12:12:14;13.60;97.50
76293;DHT22;67256;51.154;4.164;2023-10-31T12:14:40;13.70;97.50
76293;DHT22;67256;51.154;4.164;2023-10-31T12:17:07;13.60;97.60
76293;DHT22;67256;51.154;4.164;2023-10-31T12:19:33;13.60;97.60
76293;DHT22;67256;51.154;4.164;2023-10-31T12:21:59;13.70;97.70
76293;DHT22;67256;51.154;4.164;2023-10-31T12:24:25;13.70;97.50
76293;DHT22;67256;51.154;4.164;2023-10-31T12:26:50;13.70;97.50
76293;DHT22;67256;51.154;4.164;2023-10-31T12:31:50;13.80;97.50
76293;DHT22;67256;51.154;4.164;2023-10-31T12:34:19;13.90;97.50
76293;DHT22;67256;51.154;4.164;2023-10-31T12:36:51;13.90;97.30
76293;DHT22;67256;51.154;4.164;2023-10-31T12:39:20;14.00;97.30
76293;DHT22;67256;51.154;4.164;2023-10-31T12:41:47;14.00;97.30
76293;DHT22;67256;51.154;4.164;2023-10-31T12:44:18;14.20;97.40
76293;DHT22;67256;51.154;4.164;2023-10-31T12:46:46;14.10;97.30
76293;DHT22;67256;51.154;4.164;2023-10-31T12:49:16;14.10;97.40
76293;DHT22;67256;51.154;4.164;2023-10-31T12:52:04;14.10;97.40
76293;DHT22;67256;51.154;4.164;2023-10-31T12:54:36;14.00;97.50
76293;DHT22;67256;51.154;4.164;2023-10-31T12:57:03;14.00;97.50
76293;DHT22;67256;51.154;4.164;2023-10-31T12:59:31;14.00;97.80
76293;DHT22;67256;51.154;4.164;2023-10-31T13:01:57;14.00;98.00
76293;DHT22;67256;51.154;4.164;2023-10-31T13:04:29;14.00;98.20
76293;DHT22;67256;51.154;4.164;2023-10-31T13:07:05;14.00;98.00
76293;DHT22;67256;51.154;4.164;2023-10-31T13:09:32;14.00;98.20
76293;DHT22;67256;51.154;4.164;2023-10-31T13:12:00;14.10;98.00
76293;DHT22;67256;51.154;4.164;2023-10-31T13:14:26;14.10;97.70
76293;DHT22;67256;51.154;4.164;2023-10-31T13:16:52;14.10;97.80
76293;DHT22;67256;51.154;4.164;2023-10-31T13:19:17;14.10;97.60
76293;DHT22;67256;51.154;4.164;2023-10-31T13:21:43;14.10;97.60
76293;DHT22;67256;51.154;4.164;2023-10-31T13:24:09;14.00;97.90
76293;DHT22;67256;51.154;4.164;2023-10-31T13:26:35;14.00;97.80
76293;DHT22;67256;51.154;4.164;2023-10-31T13:29:01;14.10;97.90
76293;DHT22;67256;51.154;4.164;2023-10-31T13:31:27;14.10;97.50
76293;DHT22;67256;51.154;4.164;2023-10-31T13:33:53;14.10;98.00
76293;DHT22;67256;51.154;4.164;2023-10-31T13:36:19;14.10;98.00
76293;DHT22;67256;51.154;4.164;2023-10-31T13:38:45;14.10;98.00
76293;DHT22;67256;51.154;4.164;2023-10-31T13:41:12;14.10;98.10
76293;DHT22;67256;51.154;4.164;2023-10-31T13:43:38;14.20;98.00
76293;DHT22;67256;51.154;4.164;2023-10-31T13:46:04;14.20;98.00
76293;DHT22;67256;51.154;4.164;2023-10-31T13:48:30;14.40;97.90
76293;DHT22;67256;51.154;4.164;2023-10-31T13:50:56;14.50;97.70
76293;DHT22;67256;51.154;4.164;2023-10-31T13:53:21;14.50;97.80
76293;DHT22;67256;51.154;4.164;2023-10-31T13:55:47;14.60;97.50
76293;DHT22;67256;51.154;4.164;2023-10-31T13:58:14;14.70;97.70
76293;DHT22;67256;51.154;4.164;2023-10-31T14:00:40;14.70;97.60
76293;DHT22;67256;51.154;4.164;2023-10-31T14:03:06;14.80;97.50
76293;DHT22;67256;51.154;4.164;2023-10-31T14:05:32;14.80;97.50
76293;DHT22;67256;51.154;4.164;2023-10-31T14:07:58;14.80;97.60
76293;DHT22;67256;51.154;4.164;2023-10-31T14:10:25;14.90;97.30
76293;DHT22;67256;51.154;4.164;2023-10-31T14:12:52;14.90;97.10
76293;DHT22;67256;51.154;4.164;2023-10-31T14:15:18;14.90;97.10
76293;DHT22;67256;51.154;4.164;2023-10-31T14:17:44;14.90;97.20
76293;DHT22;67256;51.154;4.164;2023-10-31T14:20:10;14.90;96.80
76293;DHT22;67256;51.154;4.164;2023-10-31T14:22:36;14.80;97.20
76293;DHT22;67256;51.154;4.164;2023-10-31T14:25:01;14.90;97.20
76293;DHT22;67256;51.154;4.164;2023-10-31T14:27:29;14.80;97.10
76293;DHT22;67256;51.154;4.164;2023-10-31T14:29:55;14.90;97.00
76293;DHT22;67256;51.154;4.164;2023-10-31T14:32:21;14.90;97.00
76293;DHT22;67256;51.154;4.164;2023-10-31T14:34:47;14.90;97.00
76293;DHT22;67256;51.154;4.164;2023-10-31T14:37:13;14.90;97.00
76293;DHT22;67256;51.154;4.164;2023-10-31T14:39:38;14.90;96.90
76293;DHT22;67256;51.154;4.164;2023-10-31T14:42:04;14.90;96.70
76293;DHT22;67256;51.154;4.164;2023-10-31T14:44:30;14.90;96.70
76293;DHT22;67256;51.154;4.164;2023-10-31T14:46:56;14.90;96.60
76293;DHT22;67256;51.154;4.164;2023-10-31T14:49:23;14.90;96.60
76293;DHT22;67256;51.154;4.164;2023-10-31T14:51:48;14.80;96.50
76293;DHT22;67256;51.154;4.164;2023-10-31T14:54:15;14.70;96.60
76293;DHT22;67256;51.154;4.164;2023-10-31T14:56:40;14.70;96.60
76293;DHT22;67256;51.154;4.164;2023-10-31T14:59:07;14.70;96.80
76293;DHT22;67256;51.154;4.164;2023-10-31T15:01:33;14.60;97.00
76293;DHT22;67256;51.154;4.164;2023-10-31T15:03:59;14.60;96.90
76293;DHT22;67256;51.154;4.164;2023-10-31T15:06:24;14.40;97.30
76293;DHT22;67256;51.154;4.164;2023-10-31T15:08:50;14.50;97.50
76293;DHT22;67256;51.154;4.164;2023-10-31T15:11:16;14.50;97.10
76293;DHT22;67256;51.154;4.164;2023-10-31T15:13:42;14.50;97.30
76293;DHT22;67256;51.154;4.164;2023-10-31T15:16:09;14.50;97.00
76293;DHT22;67256;51.154;4.164;2023-10-31T15:18:34;14.40;97.40
76293;DHT22;67256;51.154;4.164;2023-10-31T15:21:01;14.50;97.40
76293;DHT22;67256;51.154;4.164;2023-10-31T15:23:27;14.60;97.40
76293;DHT22;67256;51.154;4.164;2023-10-31T15:25:56;14.60;97.20
76293;DHT22;67256;51.154;4.164;2023-10-31T15:28:23;14.40;97.20
76293;DHT22;67256;51.154;4.164;2023-10-31T15:30:51;14.50;97.30